Time;durP1;ratioP1;P1;durP2;ratioP2;P2;SDS_P1;SDS_P2;PMS_P1;PMS_P2;Temp;Humidity;BMP_temperature;BMP_pressure;BME280_temperature;BME280_humidity;BME280_pressure;Samples;Min_cycle;Max_cycle;Signal;HPM_P1;HPM_P2
2023/12/17 00:00:24;;;;;;;14.00;8.00;;;2.50;1.00;;;;;;4988638;28;20199;-78
2023/12/17 00:02:50;;;;;;;15.40;9.27;;;2.90;1.00;;;;;;4987609;28;20191;-75
2023/12/17 00:05:16;;;;;;;22.47;10.60;;;2.90;1.00;;;;;;4986549;28;20179;-78
2023/12/17 00:07:42;;;;;;;23.87;10.00;;;3.00;1.00;;;;;;4983369;28;20199;-77
2023/12/17 00:10:08;;;;;;;24.07;9.27;;;2.40;1.00;;;;;;4987759;28;20441;-78
2023/12/17 00:12:34;;;;;;;22.53;9.73;;;2.40;1.00;;;;;;4983182;28;20316;-78
2023/12/17 00:14:59;;;;;;;18.20;9.60;;;2.70;1.00;;;;;;4988493;28;20442;-79
2023/12/17 00:17:25;;;;;;;23.43;10.80;;;2.70;1.00;;;;;;4988391;28;20290;-78
2023/12/17 00:19:50;;;;;;;25.03;11.10;;;2.50;1.00;;;;;;4988322;28;20191;-78
2023/12/17 00:22:16;;;;;;;20.37;10.93;;;2.50;1.00;;;;;;4991538;28;20194;-78
2023/12/17 00:24:41;;;;;;;28.47;10.57;;;2.90;1.00;;;;;;4992239;28;20191;-78
2023/12/17 00:27:07;;;;;;;20.17;10.47;;;2.90;1.00;;;;;;4990727;28;20198;-77
2023/12/17 00:29:32;;;;;;;22.20;11.47;;;2.80;1.00;;;;;;4991903;28;20247;-78
2023/12/17 00:31:58;;;;;;;22.73;11.40;;;2.40;1.00;;;;;;4991686;28;20257;-77
2023/12/17 00:34:24;;;;;;;19.53;10.13;;;2.40;1.00;;;;;;4990722;28;20187;-77
2023/12/17 00:36:49;;;;;;;16.50;8.87;;;2.30;1.00;;;;;;4990163;28;20466;-78
2023/12/17 00:39:14;;;;;;;14.80;8.67;;;2.90;1.00;;;;;;4990906;28;20191;-77
2023/12/17 00:41:40;;;;;;;15.80;9.20;;;2.30;1.00;;;;;;4990915;28;20207;-78
2023/12/17 00:44:05;;;;;;;18.47;8.40;;;2.30;1.00;;;;;;4991479;28;20278;-78
2023/12/17 00:46:31;;;;;;;18.47;8.90;;;2.70;1.00;;;;;;4992079;28;20183;-78
2023/12/17 00:48:57;;;;;;;16.93;9.37;;;2.50;1.00;;;;;;4990160;28;20370;-78
2023/12/17 00:51:23;;;;;;;18.90;9.07;;;2.10;1.00;;;;;;4989806;28;20229;-78
2023/12/17 00:53:48;;;;;;;16.00;7.83;;;2.10;1.00;;;;;;4990967;28;21099;-76
2023/12/17 00:56:14;;;;;;;14.00;7.60;;;2.00;1.00;;;;;;4991121;28;20187;-75
2023/12/17 00:58:39;;;;;;;17.53;6.70;;;2.40;1.00;;;;;;4991413;28;20214;-79
2023/12/17 01:01:05;;;;;;;12.87;7.17;;;2.00;1.00;;;;;;4990844;28;20218;-78
2023/12/17 01:03:30;;;;;;;12.93;7.23;;;2.00;1.00;;;;;;4990424;28;20186;-77
2023/12/17 01:05:56;;;;;;;12.33;6.67;;;2.50;1.00;;;;;;4985835;28;20605;-78
2023/12/17 01:08:21;;;;;;;11.63;6.60;;;2.50;1.00;;;;;;4990845;28;20279;-78
2023/12/17 01:10:47;;;;;;;12.37;7.20;;;2.10;1.00;;;;;;4990812;28;20872;-77
2023/12/17 01:13:12;;;;;;;9.77;6.50;;;2.10;1.00;;;;;;4989729;28;20236;-78
2023/12/17 01:15:38;;;;;;;11.20;6.90;;;2.00;1.00;;;;;;4991566;28;20195;-78
2023/12/17 01:18:03;;;;;;;12.80;7.27;;;2.00;1.00;;;;;;4990031;28;20217;-78
2023/12/17 01:20:29;;;;;;;11.50;7.10;;;2.00;1.00;;;;;;4990628;28;20257;-77
2023/12/17 01:22:55;;;;;;;12.90;6.30;;;2.00;1.00;;;;;;4989915;28;20198;-77
2023/12/17 01:25:20;;;;;;;14.40;6.43;;;2.50;1.00;;;;;;4989808;28;20172;-78
2023/12/17 01:27:46;;;;;;;11.63;6.80;;;2.40;1.00;;;;;;4987594;28;20215;-78
2023/12/17 01:30:11;;;;;;;10.63;6.30;;;2.00;1.00;;;;;;4986917;28;20617;-77
2023/12/17 01:32:37;;;;;;;14.70;7.70;;;2.00;1.00;;;;;;4989988;28;20191;-77
2023/12/17 01:35:04;;;;;;;15.20;7.10;;;2.00;1.00;;;;;;4989765;28;20569;-77
2023/12/17 01:37:30;;;;;;;12.13;6.67;;;1.90;1.00;;;;;;4990315;28;20281;-77
2023/12/17 01:39:55;;;;;;;15.60;7.73;;;1.90;1.00;;;;;;4990208;28;20908;-78
2023/12/17 01:42:21;;;;;;;13.30;7.13;;;2.20;1.00;;;;;;4990283;28;20183;-77
2023/12/17 01:44:46;;;;;;;18.23;7.27;;;2.20;1.00;;;;;;4988921;28;20576;-77
2023/12/17 01:47:12;;;;;;;17.90;6.90;;;2.20;1.00;;;;;;4987310;28;20183;-78
2023/12/17 01:49:38;;;;;;;13.50;6.70;;;1.90;1.00;;;;;;4988694;28;20195;-77
2023/12/17 01:52:04;;;;;;;17.30;6.77;;;1.80;1.00;;;;;;4989303;28;20202;-78
2023/12/17 01:54:30;;;;;;;14.80;6.50;;;1.80;1.00;;;;;;4990383;28;20676;-78
2023/12/17 01:56:55;;;;;;;11.93;7.17;;;2.30;1.00;;;;;;4989324;28;20528;-77
2023/12/17 01:59:21;;;;;;;15.33;7.43;;;2.00;1.00;;;;;;4990335;28;20191;-77
2023/12/17 02:01:48;;;;;;;13.80;7.03;;;1.70;1.00;;;;;;4988730;28;20724;-77
2023/12/17 02:04:14;;;;;;;14.10;8.00;;;1.60;1.00;;;;;;4988853;28;20423;-77
2023/12/17 02:06:39;;;;;;;11.27;6.87;;;2.00;1.00;;;;;;4989803;28;20437;-79
2023/12/17 02:09:05;;;;;;;11.97;6.33;;;1.90;1.00;;;;;;4989498;28;20195;-77
2023/12/17 02:11:30;;;;;;;10.77;6.20;;;1.70;1.00;;;;;;4987565;28;20949;-79
2023/12/17 02:13:56;;;;;;;13.20;6.20;;;1.60;1.00;;;;;;4986932;28;20523;-76
2023/12/17 02:16:21;;;;;;;13.73;6.53;;;2.00;1.00;;;;;;4990214;28;20187;-77
2023/12/17 02:18:47;;;;;;;15.80;7.10;;;1.50;1.00;;;;;;4989535;28;20290;-77
2023/12/17 02:21:12;;;;;;;14.40;6.97;;;1.50;1.00;;;;;;4987923;28;20215;-75
2023/12/17 02:23:38;;;;;;;10.67;5.60;;;1.90;1.00;;;;;;4989996;28;20198;-77
2023/12/17 02:26:04;;;;;;;11.07;6.00;;;2.00;1.00;;;;;;4985255;28;20214;-78
2023/12/17 02:28:30;;;;;;;8.30;5.60;;;1.60;1.00;;;;;;4989048;28;20427;-76
2023/12/17 02:30:56;;;;;;;12.27;5.90;;;1.50;1.00;;;;;;4989093;28;20446;-79
2023/12/17 02:33:21;;;;;;;8.80;5.53;;;1.90;1.00;;;;;;4989137;28;20199;-78
2023/12/17 02:35:47;;;;;;;16.93;6.50;;;1.60;1.00;;;;;;4988253;28;20199;-77
2023/12/17 02:38:12;;;;;;;8.63;5.73;;;1.50;1.00;;;;;;4988650;28;20213;-78
2023/12/17 02:40:38;;;;;;;11.50;6.10;;;1.60;1.00;;;;;;4989397;28;20280;-78
2023/12/17 02:43:03;;;;;;;13.23;6.03;;;2.10;1.00;;;;;;4987726;28;20217;-78
2023/12/17 02:45:29;;;;;;;11.80;6.43;;;2.00;1.00;;;;;;4988588;28;20187;-77
2023/12/17 02:47:54;;;;;;;8.63;5.73;;;1.90;1.00;;;;;;4989291;28;20707;-79
2023/12/17 02:50:20;;;;;;;12.30;6.37;;;1.60;1.00;;;;;;4987990;28;20281;-77
2023/12/17 02:52:45;;;;;;;12.57;6.73;;;1.60;1.00;;;;;;4988895;28;20209;-78
2023/12/17 02:55:11;;;;;;;13.17;7.03;;;2.10;1.00;;;;;;4988385;28;20183;-78
2023/12/17 02:57:36;;;;;;;11.83;6.53;;;1.50;1.00;;;;;;4986777;28;20210;-77
2023/12/17 03:00:03;;;;;;;13.50;6.30;;;1.60;1.00;;;;;;4988702;28;20233;-77
2023/12/17 03:02:29;;;;;;;7.97;5.70;;;1.60;1.00;;;;;;4986935;28;20241;-77
2023/12/17 03:04:54;;;;;;;11.80;5.73;;;1.60;1.00;;;;;;4984130;28;21015;-78
2023/12/17 03:07:20;;;;;;;14.40;6.70;;;2.00;1.00;;;;;;4988516;28;20187;-78
2023/12/17 03:09:45;;;;;;;13.40;5.93;;;1.60;1.00;;;;;;4988887;28;20191;-77
2023/12/17 03:12:11;;;;;;;12.17;6.60;;;1.50;1.00;;;;;;4981082;28;20194;-78
2023/12/17 03:14:37;;;;;;;10.57;6.83;;;1.50;1.00;;;;;;4984144;28;20357;-77
2023/12/17 03:17:03;;;;;;;9.80;5.63;;;1.40;1.00;;;;;;4986256;28;20788;-76
2023/12/17 03:19:28;;;;;;;10.60;6.03;;;1.50;1.00;;;;;;4987463;28;20183;-75
2023/12/17 03:21:54;;;;;;;13.03;6.73;;;1.50;1.00;;;;;;4988890;28;20593;-79
2023/12/17 03:24:19;;;;;;;12.10;6.60;;;1.50;1.00;;;;;;4989064;28;20241;-77
2023/12/17 03:26:44;;;;;;;10.87;6.30;;;1.80;1.00;;;;;;4986820;28;20582;-77
2023/12/17 03:29:10;;;;;;;13.20;6.17;;;1.90;1.00;;;;;;4988602;28;20195;-79
2023/12/17 03:31:35;;;;;;;10.30;6.30;;;1.50;1.00;;;;;;4988407;28;20253;-77
2023/12/17 03:34:02;;;;;;;13.83;6.80;;;2.00;1.00;;;;;;4988062;28;20202;-78
2023/12/17 03:36:28;;;;;;;9.87;5.90;;;1.50;1.00;;;;;;4987838;28;20183;-77
2023/12/17 03:38:53;;;;;;;10.87;6.30;;;1.50;1.00;;;;;;4989322;28;20468;-78
2023/12/17 03:41:23;;;;;;;9.87;5.83;;;1.50;1.00;;;;;;4986964;28;20200;-78
2023/12/17 03:43:54;;;;;;;14.90;6.40;;;1.90;1.00;;;;;;4988151;28;20187;-77
2023/12/17 03:46:22;;;;;;;10.63;6.00;;;1.40;1.00;;;;;;4987426;28;20509;-77
2023/12/17 03:48:47;;;;;;;11.73;6.30;;;1.30;1.00;;;;;;4987008;28;20431;-79
2023/12/17 03:51:13;;;;;;;11.60;6.37;;;1.40;1.00;;;;;;4986802;28;20480;-77
2023/12/17 03:53:38;;;;;;;10.10;5.77;;;1.80;1.00;;;;;;4989111;28;20226;-77
2023/12/17 03:56:09;;;;;;;12.70;5.80;;;1.90;1.00;;;;;;4990966;28;20637;-75
2023/12/17 03:58:35;;;;;;;16.40;6.70;;;1.50;1.00;;;;;;4992150;28;20274;-77
2023/12/17 04:01:02;;;;;;;9.73;6.07;;;1.50;1.00;;;;;;4992201;28;20450;-78
2023/12/17 04:03:27;;;;;;;9.70;6.60;;;1.70;1.00;;;;;;4990993;28;20179;-77
2023/12/17 04:05:53;;;;;;;12.53;6.03;;;2.00;1.00;;;;;;4988919;28;20464;-78
2023/12/17 04:08:18;;;;;;;11.77;5.93;;;2.00;1.00;;;;;;4990385;28;20191;-77
2023/12/17 04:10:44;;;;;;;12.10;5.60;;;;;;;;;;4991536;28;20322;-77
2023/12/17 04:13:09;;;;;;;10.80;5.83;;;1.50;1.00;;;;;;4990791;28;20677;-78
2023/12/17 04:15:35;;;;;;;8.50;5.17;;;1.80;1.00;;;;;;4992383;28;20199;-77
2023/12/17 04:18:00;;;;;;;18.80;6.30;;;1.90;1.00;;;;;;4991883;28;20242;-78
2023/12/17 04:20:26;;;;;;;10.03;5.53;;;1.40;1.00;;;;;;4990454;28;20230;-77
2023/12/17 04:22:52;;;;;;;9.53;6.10;;;1.70;1.00;;;;;;4991301;28;20202;-77
2023/12/17 04:25:18;;;;;;;14.63;5.80;;;1.80;1.00;;;;;;4987202;28;20179;-77
2023/12/17 04:27:43;;;;;;;11.40;6.07;;;1.40;1.00;;;;;;4991552;28;20945;-77
2023/12/17 04:30:10;;;;;;;14.07;5.53;;;1.80;1.00;;;;;;4991529;28;20324;-78
2023/12/17 04:32:36;;;;;;;9.57;4.90;;;1.40;1.00;;;;;;4989625;28;20186;-77
2023/12/17 04:35:03;;;;;;;8.30;5.63;;;1.90;1.00;;;;;;4990763;28;20817;-77
2023/12/17 04:37:29;;;;;;;7.37;5.47;;;1.50;1.00;;;;;;4987159;28;20257;-78
2023/12/17 04:39:54;;;;;;;8.70;5.27;;;1.30;1.00;;;;;;4991529;28;20880;-77
2023/12/17 04:42:20;;;;;;;8.47;5.20;;;1.30;1.00;;;;;;4989471;28;20561;-78
2023/12/17 04:44:45;;;;;;;13.57;6.37;;;1.70;1.00;;;;;;4992083;28;20258;-79
2023/12/17 04:47:11;;;;;;;14.23;6.13;;;1.40;1.00;;;;;;4986261;28;20187;-78
2023/12/17 04:49:37;;;;;;;9.57;5.50;;;1.70;1.00;;;;;;4989941;28;20255;-77
2023/12/17 04:52:03;;;;;;;11.00;6.00;;;1.40;1.00;;;;;;4991216;28;20512;-77
2023/12/17 04:54:29;;;;;;;7.93;5.07;;;1.30;1.00;;;;;;4990955;28;20557;-77
2023/12/17 04:56:55;;;;;;;9.70;5.37;;;1.70;1.00;;;;;;4986315;28;20658;-77
2023/12/17 04:59:21;;;;;;;10.80;5.33;;;1.30;1.00;;;;;;4991141;28;20215;-78
2023/12/17 05:01:46;;;;;;;8.47;5.63;;;1.30;1.00;;;;;;4989526;28;20214;-78
2023/12/17 05:04:12;;;;;;;9.87;5.90;;;1.30;1.00;;;;;;4986956;28;20431;-75
2023/12/17 05:06:37;;;;;;;11.13;5.27;;;1.80;1.00;;;;;;4990954;28;20183;-78
2023/12/17 05:09:04;;;;;;;6.80;4.57;;;1.80;1.00;;;;;;4991435;28;20199;-77
2023/12/17 05:11:29;;;;;;;13.70;5.30;;;1.20;1.00;;;;;;4989957;28;20214;-77
2023/12/17 05:13:55;;;;;;;8.80;5.13;;;1.80;1.00;;;;;;4988413;28;20947;-79
2023/12/17 05:16:20;;;;;;;8.37;5.30;;;1.40;1.00;;;;;;4991326;28;20878;-77
2023/12/17 05:18:46;;;;;;;10.27;5.77;;;1.40;1.00;;;;;;4989411;28;20265;-77
2023/12/17 05:21:11;;;;;;;9.80;5.90;;;1.40;1.00;;;;;;4989715;28;20223;-77
2023/12/17 05:23:37;;;;;;;11.23;5.53;;;1.40;1.00;;;;;;4991426;28;20183;-77
2023/12/17 05:26:02;;;;;;;10.80;5.90;;;1.40;1.00;;;;;;4991698;28;20191;-77
2023/12/17 05:28:28;;;;;;;8.53;4.60;;;1.30;1.00;;;;;;4989989;28;20195;-78
2023/12/17 05:30:53;;;;;;;10.77;5.50;;;1.30;1.00;;;;;;4990836;28;20214;-78
2023/12/17 05:33:19;;;;;;;11.10;5.23;;;1.80;1.00;;;;;;4990029;28;20198;-77
2023/12/17 05:35:45;;;;;;;9.30;5.23;;;1.30;1.00;;;;;;4990733;28;20191;-77
2023/12/17 05:38:11;;;;;;;10.83;5.23;;;1.30;1.00;;;;;;4989203;28;20545;-77
2023/12/17 05:40:36;;;;;;;13.40;5.77;;;1.30;1.00;;;;;;4982687;28;20215;-79
2023/12/17 05:43:03;;;;;;;10.97;5.13;;;1.30;1.00;;;;;;4990070;28;20187;-78
2023/12/17 05:45:30;;;;;;;10.13;5.80;;;1.70;1.00;;;;;;4990340;28;20182;-78
2023/12/17 05:47:56;;;;;;;9.53;5.03;;;1.20;1.00;;;;;;4990451;28;20556;-77
2023/12/17 05:50:22;;;;;;;7.27;4.90;;;1.30;1.00;;;;;;4988925;28;21054;-76
2023/12/17 05:52:48;;;;;;;11.17;5.80;;;1.30;1.00;;;;;;4990093;28;20649;-77
2023/12/17 05:55:14;;;;;;;10.70;5.23;;;1.60;1.00;;;;;;4999421;28;20429;-75
2023/12/17 05:57:41;;;;;;;8.03;5.20;;;1.20;1.00;;;;;;4987782;28;20207;-78
2023/12/17 06:00:08;;;;;;;10.83;5.00;;;1.10;1.00;;;;;;4985858;28;20454;-77
2023/12/17 06:02:34;;;;;;;11.43;5.60;;;1.10;1.00;;;;;;4989070;28;20446;-78
2023/12/17 06:04:59;;;;;;;10.43;5.30;;;1.10;1.00;;;;;;4989839;28;20512;-79
2023/12/17 06:07:25;;;;;;;12.70;5.13;;;1.00;1.00;;;;;;4989471;28;20195;-78
2023/12/17 06:09:51;;;;;;;11.10;5.83;;;1.10;1.00;;;;;;4982036;28;20805;-77
2023/12/17 06:12:17;;;;;;;8.70;5.67;;;1.00;1.00;;;;;;4985552;28;20220;-77
2023/12/17 06:14:42;;;;;;;10.37;5.97;;;1.00;1.00;;;;;;4990265;28;20266;-79
2023/12/17 06:17:08;;;;;;;8.83;5.30;;;1.20;1.00;;;;;;4989498;28;20705;-78
2023/12/17 06:19:33;;;;;;;10.20;5.30;;;1.40;1.00;;;;;;4987549;28;20195;-77
2023/12/17 06:22:01;;;;;;;12.07;6.00;;;1.50;1.00;;;;;;4989364;28;20223;-76
2023/12/17 06:24:26;;;;;;;11.00;5.83;;;1.50;1.00;;;;;;4989623;28;20654;-77
2023/12/17 06:26:53;;;;;;;14.57;5.43;;;1.20;1.00;;;;;;4985294;28;20427;-77
2023/12/17 06:29:19;;;;;;;10.57;5.93;;;1.70;1.00;;;;;;4988427;28;20179;-77
2023/12/17 06:31:45;;;;;;;8.07;5.17;;;1.20;1.00;;;;;;4989208;28;20786;-79
2023/12/17 06:34:10;;;;;;;7.27;5.17;;;1.50;1.00;;;;;;4987655;28;20660;-76
2023/12/17 06:36:36;;;;;;;12.70;5.90;;;1.30;1.00;;;;;;4984217;28;20187;-75
2023/12/17 06:39:02;;;;;;;11.83;5.80;;;1.40;1.00;;;;;;4985467;28;20203;-76
2023/12/17 06:41:28;;;;;;;10.60;5.40;;;1.30;1.00;;;;;;4988338;28;20214;-77
2023/12/17 06:43:53;;;;;;;10.63;5.70;;;1.20;1.00;;;;;;4989397;28;20422;-78
2023/12/17 06:46:19;;;;;;;6.90;4.93;;;1.60;1.00;;;;;;4985737;28;20191;-78
2023/12/17 06:48:48;;;;;;;6.70;5.07;;;1.70;1.00;;;;;;4987664;28;20191;-78
2023/12/17 06:51:13;;;;;;;11.27;5.73;;;1.30;1.00;;;;;;4986075;28;20216;-78
2023/12/17 06:53:39;;;;;;;8.10;5.50;;;1.30;1.00;;;;;;4989012;28;20434;-77
2023/12/17 06:56:05;;;;;;;12.27;5.23;;;1.70;1.00;;;;;;4988916;28;20267;-78
2023/12/17 06:58:31;;;;;;;9.93;5.40;;;1.30;1.00;;;;;;4987845;28;20203;-77
2023/12/17 07:00:57;;;;;;;9.93;5.73;;;1.70;1.00;;;;;;4988317;28;20450;-78
2023/12/17 07:03:24;;;;;;;12.00;5.50;;;1.80;1.00;;;;;;4989023;28;20429;-77
2023/12/17 07:05:49;;;;;;;14.20;6.10;;;1.30;1.00;;;;;;4989167;28;20179;-78
2023/12/17 07:08:15;;;;;;;16.83;6.90;;;1.80;1.00;;;;;;4989707;28;20449;-78
2023/12/17 07:10:41;;;;;;;8.90;6.17;;;1.90;1.00;;;;;;4989059;28;22356;-77
2023/12/17 07:13:06;;;;;;;12.37;5.80;;;1.40;1.00;;;;;;4988180;28;20669;-78
2023/12/17 07:15:32;;;;;;;13.13;6.60;;;1.50;1.00;;;;;;4988353;28;20236;-77
2023/12/17 07:17:57;;;;;;;12.13;6.10;;;1.50;1.00;;;;;;4988945;28;20233;-78
2023/12/17 07:20:23;;;;;;;11.73;6.20;;;2.00;1.00;;;;;;4986945;28;20210;-76
2023/12/17 07:22:48;;;;;;;10.17;6.07;;;2.00;1.00;;;;;;4990865;28;20657;-76
2023/12/17 07:25:16;;;;;;;32.33;6.50;;;1.90;1.00;;;;;;4988172;28;20186;-76
2023/12/17 07:27:41;;;;;;;11.27;5.90;;;1.90;1.00;;;;;;4988417;28;20191;-77
2023/12/17 07:30:07;;;;;;;15.10;5.93;;;1.70;1.00;;;;;;4986294;28;20984;-77
2023/12/17 07:32:33;;;;;;;11.50;6.20;;;1.70;1.00;;;;;;4986431;28;20266;-76
2023/12/17 07:34:58;;;;;;;8.83;6.13;;;2.10;1.00;;;;;;4988290;28;21008;-77
2023/12/17 07:37:24;;;;;;;14.00;6.83;;;2.30;1.00;;;;;;4980651;28;20206;-78
2023/12/17 07:39:49;;;;;;;13.07;8.07;;;2.00;1.00;;;;;;4988729;28;20206;-78
2023/12/17 07:42:15;;;;;;;18.07;8.30;;;2.00;1.00;;;;;;4988693;28;20206;-78
2023/12/17 07:44:40;;;;;;;27.67;11.70;;;3.90;1.00;;;;;;4988436;28;20843;-77
2023/12/17 07:47:10;;;;;;;15.70;8.30;;;2.10;1.00;;;;;;4986696;28;20184;-78
2023/12/17 07:49:36;;;;;;;13.70;7.13;;;2.70;1.00;;;;;;4986661;28;20211;-78
2023/12/17 07:52:02;;;;;;;11.80;7.40;;;2.30;1.00;;;;;;4988629;28;20501;-77
2023/12/17 07:54:29;;;;;;;11.07;6.77;;;2.40;1.00;;;;;;4988727;28;20418;-76
2023/12/17 07:56:55;;;;;;;12.83;6.90;;;2.80;1.00;;;;;;4988300;28;20511;-78
2023/12/17 07:59:20;;;;;;;16.57;7.00;;;2.90;1.00;;;;;;4989031;28;20422;-78
2023/12/17 08:01:47;;;;;;;13.50;6.40;;;2.60;1.00;;;;;;4987963;28;20409;-77
2023/12/17 08:04:13;;;;;;;10.40;6.10;;;2.70;1.00;;;;;;4978496;28;20313;-75
2023/12/17 08:06:39;;;;;;;12.23;6.67;;;2.70;1.00;;;;;;4981794;28;20517;-78
2023/12/17 08:09:04;;;;;;;10.23;6.00;;;3.10;1.00;;;;;;4985185;28;20214;-77
2023/12/17 08:11:30;;;;;;;10.30;4.80;;;2.90;1.00;;;;;;4983837;28;20536;-77
2023/12/17 08:13:55;;;;;;;10.50;6.30;;;3.30;1.00;;;;;;4988735;28;20186;-77
2023/12/17 08:16:21;;;;;;;10.17;6.20;;;3.30;1.00;;;;;;4988343;28;20693;-77
2023/12/17 08:18:46;;;;;;;10.03;5.90;;;3.10;1.00;;;;;;4982377;28;20207;-78
2023/12/17 08:21:12;;;;;;;9.17;5.43;;;3.30;1.00;;;;;;4980696;28;20753;-77
2023/12/17 08:23:37;;;;;;;13.67;6.83;;;3.30;1.00;;;;;;4988363;28;20219;-78
2023/12/17 08:26:03;;;;;;;13.53;6.73;;;3.70;1.00;;;;;;4986688;28;20175;-77
2023/12/17 08:28:28;;;;;;;14.50;6.57;;;3.50;1.00;;;;;;4986768;28;20183;-78
2023/12/17 08:30:54;;;;;;;10.33;6.37;;;3.60;1.00;;;;;;4988275;28;20376;-78
2023/12/17 08:33:19;;;;;;;10.57;6.73;;;4.20;1.00;;;;;;4983674;28;20212;-77
2023/12/17 08:35:45;;;;;;;14.70;6.40;;;3.70;1.00;;;;;;4984617;28;20313;-78
2023/12/17 08:38:11;;;;;;;13.35;6.45;;;3.90;1.00;;;;;;4987405;28;20479;-77
2023/12/17 08:40:38;;;;;;;11.63;6.43;;;3.90;1.00;;;;;;4990016;28;20231;-77
2023/12/17 08:43:04;;;;;;;8.50;5.47;;;3.90;1.00;;;;;;4991289;28;20837;-77
2023/12/17 08:45:30;;;;;;;13.30;6.10;;;5.30;1.00;;;;;;4989387;28;20452;-77
2023/12/17 08:47:56;;;;;;;8.97;5.63;;;4.10;1.00;;;;;;4988889;28;20921;-77
2023/12/17 08:50:22;;;;;;;10.10;5.73;;;4.10;1.00;;;;;;4990610;28;20202;-77
2023/12/17 08:52:48;;;;;;;11.03;6.40;;;4.20;1.00;;;;;;4989559;28;20191;-76
2023/12/17 08:55:13;;;;;;;14.53;6.23;;;4.30;1.00;;;;;;4990185;28;20438;-77
2023/12/17 08:57:39;;;;;;;10.60;5.60;;;4.40;1.00;;;;;;4990717;28;20211;-78
2023/12/17 09:00:05;;;;;;;7.13;5.50;;;4.60;1.00;;;;;;4992203;28;20241;-78
2023/12/17 09:02:31;;;;;;;14.37;6.40;;;4.60;1.00;;;;;;4991595;28;20215;-77
2023/12/17 09:04:57;;;;;;;11.50;6.17;;;5.00;1.00;;;;;;4984502;28;20422;-77
2023/12/17 09:07:23;;;;;;;19.77;6.50;;;4.80;1.00;;;;;;4987628;28;20418;-77
2023/12/17 09:09:49;;;;;;;11.97;5.93;;;5.10;1.00;;;;;;4990487;28;20586;-77
2023/12/17 09:12:16;;;;;;;12.07;5.73;;;5.10;1.00;;;;;;4990176;28;20828;-77
2023/12/17 09:14:42;;;;;;;12.70;6.40;;;5.10;1.00;;;;;;4990561;28;20816;-78
2023/12/17 09:17:07;;;;;;;12.23;6.50;;;5.20;1.00;;;;;;4990821;28;20496;-77
2023/12/17 09:19:33;;;;;;;10.53;5.80;;;5.40;1.00;;;;;;4981619;28;20195;-76
2023/12/17 09:21:59;;;;;;;9.70;5.60;;;5.10;1.00;;;;;;4987015;28;20195;-77
2023/12/17 09:24:24;;;;;;;12.13;6.27;;;5.80;1.00;;;;;;4987610;28;20581;-78
2023/12/17 09:26:50;;;;;;;8.83;5.20;;;6.50;1.00;;;;;;4991350;28;20266;-78
2023/12/17 09:29:16;;;;;;;9.87;5.93;;;7.90;1.00;;;;;;4989221;28;20194;-78
2023/12/17 09:31:41;;;;;;;9.77;5.87;;;9.20;1.00;;;;;;4990795;28;21193;-77
2023/12/17 09:34:07;;;;;;;11.30;5.80;;;10.00;1.00;;;;;;4990897;28;20310;-78
2023/12/17 09:36:33;;;;;;;8.47;5.57;;;10.60;1.00;;;;;;4991613;28;20553;-79
2023/12/17 09:38:58;;;;;;;8.80;5.97;;;11.40;1.00;;;;;;4990467;28;20468;-78
2023/12/17 09:41:25;;;;;;;8.90;5.37;;;11.80;1.00;;;;;;4988679;28;20234;-77
2023/12/17 09:43:51;;;;;;;11.67;6.43;;;12.10;1.00;;;;;;4990903;28;20186;-78
2023/12/17 09:46:17;;;;;;;11.77;6.00;;;12.50;1.00;;;;;;4991529;28;20419;-78
2023/12/17 09:48:43;;;;;;;9.90;5.87;;;13.10;1.00;;;;;;4991120;28;20284;-78
2023/12/17 09:51:10;;;;;;;10.90;6.73;;;13.50;1.00;;;;;;4984804;28;20541;-76
2023/12/17 09:53:35;;;;;;;11.70;7.50;;;14.00;1.00;;;;;;4987094;28;20258;-78
2023/12/17 09:56:01;;;;;;;8.83;6.63;;;14.70;1.00;;;;;;4989678;28;20937;-78
2023/12/17 09:58:26;;;;;;;10.73;7.43;;;15.40;1.00;;;;;;4989625;28;20227;-77
2023/12/17 10:00:53;;;;;;;10.40;7.03;;;16.10;1.00;;;;;;4985963;28;20219;-78
2023/12/17 10:03:20;;;;;;;17.03;7.90;;;16.30;1.00;;;;;;4989984;28;20167;-78
2023/12/17 10:05:52;;;;;;;14.40;9.00;;;16.60;1.00;;;;;;4987842;28;20430;-77
2023/12/17 10:08:18;;;;;;;13.10;8.27;;;16.60;1.00;;;;;;4991062;28;20955;-78
2023/12/17 10:10:44;;;;;;;14.50;8.53;;;17.00;1.00;;;;;;4990487;28;20451;-79
2023/12/17 10:13:12;;;;;;;15.37;9.47;;;17.80;1.00;;;;;;4989865;28;20198;-78
2023/12/17 10:15:38;;;;;;;13.80;8.40;;;18.30;1.00;;;;;;4981664;28;20611;-78
2023/12/17 10:18:04;;;;;;;12.63;8.20;;;18.80;1.00;;;;;;4988016;28;20480;-78
2023/12/17 10:20:30;;;;;;;12.37;8.53;;;18.80;1.00;;;;;;4987475;28;20245;-78
2023/12/17 10:23:02;;;;;;;13.17;8.67;;;18.70;1.00;;;;;;4990112;28;20438;-79
2023/12/17 10:25:28;;;;;;;14.20;9.20;;;19.00;1.00;;;;;;4990944;28;20423;-77
2023/12/17 10:27:59;;;;;;;14.03;8.27;;;19.40;1.00;;;;;;4988545;28;20430;-78
2023/12/17 10:30:32;;;;;;;13.10;8.50;;;20.10;1.00;;;;;;4990444;28;20206;-78
2023/12/17 10:33:00;;;;;;;14.80;8.60;;;20.30;1.00;;;;;;4987006;28;20433;-76
2023/12/17 10:35:27;;;;;;;14.53;9.27;;;19.90;1.00;;;;;;4989655;28;20786;-78
2023/12/17 10:38:05;;;;;;;13.50;8.93;;;20.20;1.00;;;;;;4987159;28;20461;-77
2023/12/17 10:40:32;;;;;;;13.23;8.63;;;20.40;1.00;;;;;;4987669;28;20998;-78
2023/12/17 10:42:59;;;;;;;12.97;9.03;;;20.40;1.00;;;;;;4986883;28;20508;-79
2023/12/17 10:45:25;;;;;;;13.80;8.77;;;21.20;1.00;;;;;;4989366;28;20525;-78
2023/12/17 10:47:53;;;;;;;16.00;10.17;;;21.70;1.00;;;;;;4987368;28;20512;-78
2023/12/17 10:50:19;;;;;;;15.30;9.47;;;21.00;1.00;;;;;;4988395;28;20824;-79
2023/12/17 10:52:48;;;;;;;15.70;9.20;;;21.00;1.00;;;;;;4987089;28;20425;-78
2023/12/17 10:55:14;;;;;;;14.50;8.63;;;21.20;1.00;;;;;;4982963;28;20782;-79
2023/12/17 10:58:19;;;;;;;15.50;10.17;;;21.30;1.00;;;;;;4989119;28;20519;-78
2023/12/17 11:00:45;;;;;;;18.13;9.20;;;22.00;1.00;;;;;;4966489;28;20509;-78
2023/12/17 11:03:13;;;;;;;15.40;10.10;;;22.00;1.00;;;;;;4983307;28;20792;-79
2023/12/17 11:05:54;;;;;;;16.80;10.10;;;22.40;1.00;;;;;;4987453;28;20253;-79
2023/12/17 11:08:23;;;;;;;13.57;9.10;;;25.10;1.00;;;;;;4988970;28;20445;-78
2023/12/17 11:10:49;;;;;;;16.63;9.43;;;23.60;1.00;;;;;;4984836;28;20442;-78
2023/12/17 11:13:14;;;;;;;13.80;8.90;;;23.40;1.00;;;;;;4981614;28;20509;-78
2023/12/17 11:15:40;;;;;;;13.90;9.37;;;23.50;1.00;;;;;;4988834;28;20248;-78
2023/12/17 11:18:05;;;;;;;16.33;8.80;;;23.30;1.00;;;;;;4987664;28;20210;-79
2023/12/17 11:20:40;;;;;;;14.13;9.50;;;22.70;1.00;;;;;;4982034;28;20285;-78
2023/12/17 11:23:06;;;;;;;13.00;9.17;;;22.80;1.00;;;;;;4988232;28;20538;-78
2023/12/17 11:25:33;;;;;;;15.17;8.93;;;23.50;1.00;;;;;;4988056;28;20523;-77
2023/12/17 11:27:59;;;;;;;15.17;8.40;;;23.30;1.00;;;;;;4988285;28;20205;-80
2023/12/17 11:30:29;;;;;;;14.00;9.37;;;22.10;1.00;;;;;;4983344;28;20976;-78
2023/12/17 11:32:59;;;;;;;16.33;9.10;;;22.00;1.00;;;;;;4981147;28;20210;-77
2023/12/17 11:35:29;;;;;;;14.70;9.33;;;21.30;1.00;;;;;;4985394;28;20441;-78
2023/12/17 11:37:58;;;;;;;13.50;9.40;;;21.20;1.00;;;;;;4986743;28;20472;-78
2023/12/17 11:40:23;;;;;;;14.47;9.77;;;21.70;1.00;;;;;;4987222;28;20447;-78
2023/12/17 11:42:59;;;;;;;15.17;9.53;;;21.70;1.00;;;;;;4987420;28;20425;-79
2023/12/17 11:45:45;;;;;;;16.57;9.83;;;20.90;1.00;;;;;;4980794;28;20261;-78
2023/12/17 11:48:19;;;;;;;14.53;9.10;;;20.90;1.00;;;;;;4984298;28;20445;-78
2023/12/17 11:50:54;;;;;;;17.37;9.80;;;22.10;1.00;;;;;;4987529;28;20460;-79
2023/12/17 11:53:20;;;;;;;14.17;8.70;;;22.70;1.00;;;;;;4987209;28;20590;-78
2023/12/17 11:55:50;;;;;;;12.43;9.20;;;22.60;1.00;;;;;;4988987;28;21023;-78
2023/12/17 11:58:21;;;;;;;18.47;10.93;;;22.50;1.00;;;;;;4981972;28;20461;-78
2023/12/17 12:01:05;;;;;;;15.70;9.67;;;22.80;1.00;;;;;;4988633;28;20536;-78
2023/12/17 12:03:32;;;;;;;15.70;9.50;;;22.80;1.00;;;;;;4986731;28;20433;-77
2023/12/17 12:05:59;;;;;;;14.67;9.30;;;22.10;1.00;;;;;;4987882;28;20529;-77
2023/12/17 12:08:26;;;;;;;15.50;10.00;;;21.50;1.00;;;;;;4987060;28;20936;-76
2023/12/17 12:10:52;;;;;;;17.77;10.30;;;21.30;1.00;;;;;;4987961;28;20504;-76
2023/12/17 12:13:18;;;;;;;19.53;10.20;;;21.30;1.00;;;;;;4988248;28;20936;-78
2023/12/17 12:15:44;;;;;;;16.27;9.23;;;20.90;1.00;;;;;;4991136;28;20187;-78
2023/12/17 12:18:20;;;;;;;18.00;10.40;;;19.60;1.00;;;;;;4988897;28;20213;-77
2023/12/17 12:20:45;;;;;;;18.83;10.60;;;15.80;1.00;;;;;;4991124;28;20211;-77
2023/12/17 12:23:11;;;;;;;12.97;8.87;;;15.20;1.00;;;;;;4991486;28;20429;-77
2023/12/17 12:25:38;;;;;;;19.80;9.70;;;15.60;1.00;;;;;;4992268;28;20660;-77
2023/12/17 12:28:05;;;;;;;13.90;8.90;;;17.00;1.00;;;;;;4990706;28;20183;-76
2023/12/17 12:30:32;;;;;;;18.87;9.27;;;18.40;1.00;;;;;;4990466;28;20438;-77
2023/12/17 12:33:18;;;;;;;16.70;9.63;;;18.60;1.00;;;;;;4991271;28;20426;-77
2023/12/17 12:35:45;;;;;;;15.20;9.07;;;18.00;1.00;;;;;;4991049;28;20437;-77
2023/12/17 12:38:25;;;;;;;15.80;9.50;;;16.60;1.00;;;;;;4984001;28;20545;-77
2023/12/17 12:40:52;;;;;;;14.63;9.60;;;15.00;1.00;;;;;;4991592;28;20441;-75
2023/12/17 12:43:21;;;;;;;15.00;8.00;;;14.50;1.00;;;;;;4991111;28;20509;-75
2023/12/17 12:45:51;;;;;;;12.60;7.87;;;13.20;1.00;;;;;;4991733;28;20422;-76
2023/12/17 12:48:24;;;;;;;14.20;6.70;;;12.20;1.00;;;;;;4989591;28;20797;-75
2023/12/17 12:50:50;;;;;;;16.63;8.00;;;11.30;1.00;;;;;;4990717;28;20475;-77